sensor_id;sensor_type;location;lat;lon;timestamp;P1;durP1;ratioP1;P2;durP2;ratioP2
39890;SDS011;25564;53.312;9.790;2023-04-24T00:00:02;5.80;;;3.73;;
39890;SDS011;25564;53.312;9.790;2023-04-24T00:02:43;6.67;;;3.70;;
39890;SDS011;25564;53.312;9.790;2023-04-24T00:05:18;6.90;;;4.20;;
39890;SDS011;25564;53.312;9.790;2023-04-24T00:07:50;6.50;;;4.40;;
39890;SDS011;25564;53.312;9.790;2023-04-24T00:10:26;7.07;;;5.30;;
39890;SDS011;25564;53.312;9.790;2023-04-24T00:12:57;7.83;;;4.47;;
39890;SDS011;25564;53.312;9.790;2023-04-24T00:15:28;7.20;;;4.80;;
39890;SDS011;25564;53.312;9.790;2023-04-24T00:18:00;6.27;;;4.60;;
39890;SDS011;25564;53.312;9.790;2023-04-24T00:20:32;6.67;;;4.47;;
39890;SDS011;25564;53.312;9.790;2023-04-24T00:23:04;5.90;;;4.60;;
39890;SDS011;25564;53.312;9.790;2023-04-24T00:25:35;8.40;;;4.70;;
39890;SDS011;25564;53.312;9.790;2023-04-24T00:28:07;6.47;;;4.50;;
39890;SDS011;25564;53.312;9.790;2023-04-24T00:30:38;6.83;;;4.73;;
39890;SDS011;25564;53.312;9.790;2023-04-24T00:33:09;5.23;;;3.13;;
39890;SDS011;25564;53.312;9.790;2023-04-24T00:35:41;5.20;;;3.70;;
39890;SDS011;25564;53.312;9.790;2023-04-24T00:38:12;4.53;;;3.50;;
39890;SDS011;25564;53.312;9.790;2023-04-24T00:40:44;4.67;;;3.50;;
39890;SDS011;25564;53.312;9.790;2023-04-24T00:43:16;4.93;;;3.63;;
39890;SDS011;25564;53.312;9.790;2023-04-24T00:45:47;5.27;;;3.33;;
39890;SDS011;25564;53.312;9.790;2023-04-24T00:48:19;4.80;;;2.90;;
39890;SDS011;25564;53.312;9.790;2023-04-24T00:50:51;6.53;;;3.70;;
39890;SDS011;25564;53.312;9.790;2023-04-24T00:53:23;4.63;;;3.10;;
39890;SDS011;25564;53.312;9.790;2023-04-24T00:55:54;5.00;;;3.43;;
39890;SDS011;25564;53.312;9.790;2023-04-24T00:58:26;4.90;;;3.23;;
39890;SDS011;25564;53.312;9.790;2023-04-24T01:00:58;4.90;;;3.30;;
39890;SDS011;25564;53.312;9.790;2023-04-24T01:03:32;5.10;;;3.07;;
39890;SDS011;25564;53.312;9.790;2023-04-24T01:06:04;6.40;;;3.10;;
39890;SDS011;25564;53.312;9.790;2023-04-24T01:08:36;3.80;;;3.00;;
39890;SDS011;25564;53.312;9.790;2023-04-24T01:11:08;4.83;;;3.07;;
39890;SDS011;25564;53.312;9.790;2023-04-24T01:13:39;5.80;;;2.97;;
39890;SDS011;25564;53.312;9.790;2023-04-24T01:16:10;5.23;;;2.93;;
39890;SDS011;25564;53.312;9.790;2023-04-24T01:18:42;5.93;;;3.50;;
39890;SDS011;25564;53.312;9.790;2023-04-24T01:21:14;6.93;;;3.47;;
39890;SDS011;25564;53.312;9.790;2023-04-24T01:23:47;4.33;;;3.23;;
39890;SDS011;25564;53.312;9.790;2023-04-24T01:26:19;3.97;;;2.40;;
39890;SDS011;25564;53.312;9.790;2023-04-24T01:28:51;5.10;;;3.30;;
39890;SDS011;25564;53.312;9.790;2023-04-24T01:31:23;4.63;;;2.77;;
39890;SDS011;25564;53.312;9.790;2023-04-24T01:33:55;4.97;;;2.83;;
39890;SDS011;25564;53.312;9.790;2023-04-24T01:36:27;4.50;;;3.07;;
39890;SDS011;25564;53.312;9.790;2023-04-24T01:39:02;4.73;;;3.27;;
39890;SDS011;25564;53.312;9.790;2023-04-24T01:41:34;5.23;;;3.10;;
39890;SDS011;25564;53.312;9.790;2023-04-24T01:44:05;5.60;;;3.00;;
39890;SDS011;25564;53.312;9.790;2023-04-24T01:46:37;4.07;;;3.00;;
39890;SDS011;25564;53.312;9.790;2023-04-24T01:49:09;3.97;;;3.03;;
39890;SDS011;25564;53.312;9.790;2023-04-24T01:51:41;4.47;;;3.20;;
39890;SDS011;25564;53.312;9.790;2023-04-24T01:54:12;4.37;;;2.67;;
39890;SDS011;25564;53.312;9.790;2023-04-24T01:56:43;4.47;;;3.07;;
39890;SDS011;25564;53.312;9.790;2023-04-24T01:59:16;3.40;;;2.17;;
39890;SDS011;25564;53.312;9.790;2023-04-24T02:01:48;4.70;;;2.60;;
39890;SDS011;25564;53.312;9.790;2023-04-24T02:04:19;6.47;;;2.50;;
39890;SDS011;25564;53.312;9.790;2023-04-24T02:06:51;3.47;;;2.33;;
39890;SDS011;25564;53.312;9.790;2023-04-24T02:09:22;4.60;;;2.50;;
39890;SDS011;25564;53.312;9.790;2023-04-24T02:11:53;3.07;;;2.20;;
39890;SDS011;25564;53.312;9.790;2023-04-24T02:14:25;3.07;;;2.40;;
39890;SDS011;25564;53.312;9.790;2023-04-24T02:16:56;3.20;;;2.17;;
39890;SDS011;25564;53.312;9.790;2023-04-24T02:19:28;4.40;;;2.53;;
39890;SDS011;25564;53.312;9.790;2023-04-24T02:22:00;3.47;;;2.10;;
39890;SDS011;25564;53.312;9.790;2023-04-24T02:24:31;3.60;;;2.30;;
39890;SDS011;25564;53.312;9.790;2023-04-24T02:27:02;3.00;;;2.03;;
39890;SDS011;25564;53.312;9.790;2023-04-24T02:29:34;3.13;;;2.07;;
39890;SDS011;25564;53.312;9.790;2023-04-24T02:32:05;3.27;;;2.10;;
39890;SDS011;25564;53.312;9.790;2023-04-24T02:34:37;4.67;;;1.83;;
39890;SDS011;25564;53.312;9.790;2023-04-24T02:37:09;4.70;;;2.00;;
39890;SDS011;25564;53.312;9.790;2023-04-24T02:39:40;3.80;;;1.87;;
39890;SDS011;25564;53.312;9.790;2023-04-24T02:42:12;2.83;;;1.73;;
39890;SDS011;25564;53.312;9.790;2023-04-24T02:44:43;2.87;;;1.63;;
39890;SDS011;25564;53.312;9.790;2023-04-24T02:47:15;2.97;;;1.80;;
39890;SDS011;25564;53.312;9.790;2023-04-24T02:49:46;3.00;;;1.43;;
39890;SDS011;25564;53.312;9.790;2023-04-24T02:52:17;4.40;;;1.70;;
39890;SDS011;25564;53.312;9.790;2023-04-24T02:54:49;2.30;;;1.40;;
39890;SDS011;25564;53.312;9.790;2023-04-24T02:57:20;2.47;;;1.53;;
39890;SDS011;25564;53.312;9.790;2023-04-24T02:59:52;4.13;;;1.60;;
39890;SDS011;25564;53.312;9.790;2023-04-24T03:02:23;1.90;;;1.33;;
39890;SDS011;25564;53.312;9.790;2023-04-24T03:04:54;2.10;;;1.50;;
39890;SDS011;25564;53.312;9.790;2023-04-24T03:07:26;2.57;;;1.43;;
39890;SDS011;25564;53.312;9.790;2023-04-24T03:09:57;2.50;;;1.50;;
39890;SDS011;25564;53.312;9.790;2023-04-24T03:12:29;2.50;;;1.60;;
39890;SDS011;25564;53.312;9.790;2023-04-24T03:15:00;2.10;;;1.27;;
39890;SDS011;25564;53.312;9.790;2023-04-24T03:17:32;2.83;;;1.30;;
39890;SDS011;25564;53.312;9.790;2023-04-24T03:20:03;1.73;;;1.20;;
39890;SDS011;25564;53.312;9.790;2023-04-24T03:22:36;3.57;;;1.27;;
39890;SDS011;25564;53.312;9.790;2023-04-24T03:25:08;1.97;;;1.23;;
39890;SDS011;25564;53.312;9.790;2023-04-24T03:27:40;2.80;;;1.73;;
39890;SDS011;25564;53.312;9.790;2023-04-24T03:30:12;3.90;;;1.53;;
39890;SDS011;25564;53.312;9.790;2023-04-24T03:32:44;2.67;;;1.60;;
39890;SDS011;25564;53.312;9.790;2023-04-24T03:35:15;2.27;;;1.43;;
39890;SDS011;25564;53.312;9.790;2023-04-24T03:37:46;2.30;;;1.27;;
39890;SDS011;25564;53.312;9.790;2023-04-24T03:40:18;1.80;;;1.17;;
39890;SDS011;25564;53.312;9.790;2023-04-24T03:42:49;1.60;;;1.30;;
39890;SDS011;25564;53.312;9.790;2023-04-24T03:45:20;3.67;;;1.57;;
39890;SDS011;25564;53.312;9.790;2023-04-24T03:47:52;2.87;;;1.63;;
39890;SDS011;25564;53.312;9.790;2023-04-24T03:50:23;2.03;;;1.30;;
39890;SDS011;25564;53.312;9.790;2023-04-24T03:52:55;2.07;;;1.20;;
39890;SDS011;25564;53.312;9.790;2023-04-24T03:55:26;2.20;;;1.40;;
39890;SDS011;25564;53.312;9.790;2023-04-24T03:57:57;2.47;;;1.40;;
39890;SDS011;25564;53.312;9.790;2023-04-24T04:00:29;2.67;;;1.50;;
39890;SDS011;25564;53.312;9.790;2023-04-24T04:03:03;1.37;;;1.10;;
39890;SDS011;25564;53.312;9.790;2023-04-24T04:05:34;3.40;;;1.60;;
39890;SDS011;25564;53.312;9.790;2023-04-24T04:08:06;1.90;;;1.37;;
39890;SDS011;25564;53.312;9.790;2023-04-24T04:10:37;3.47;;;1.20;;
39890;SDS011;25564;53.312;9.790;2023-04-24T04:13:08;2.20;;;1.30;;
39890;SDS011;25564;53.312;9.790;2023-04-24T04:15:40;3.10;;;1.27;;
39890;SDS011;25564;53.312;9.790;2023-04-24T04:18:11;2.60;;;1.20;;
39890;SDS011;25564;53.312;9.790;2023-04-24T04:20:43;1.67;;;1.23;;
39890;SDS011;25564;53.312;9.790;2023-04-24T04:23:14;4.27;;;3.87;;
39890;SDS011;25564;53.312;9.790;2023-04-24T04:25:45;1.90;;;1.43;;
39890;SDS011;25564;53.312;9.790;2023-04-24T04:28:18;1.80;;;1.40;;
39890;SDS011;25564;53.312;9.790;2023-04-24T04:30:50;2.07;;;1.43;;
39890;SDS011;25564;53.312;9.790;2023-04-24T04:33:25;2.93;;;1.20;;
39890;SDS011;25564;53.312;9.790;2023-04-24T04:35:57;1.70;;;1.30;;
39890;SDS011;25564;53.312;9.790;2023-04-24T04:38:29;4.47;;;1.60;;
39890;SDS011;25564;53.312;9.790;2023-04-24T04:41:01;1.50;;;1.23;;
39890;SDS011;25564;53.312;9.790;2023-04-24T04:43:33;2.27;;;1.50;;
39890;SDS011;25564;53.312;9.790;2023-04-24T04:46:05;2.10;;;1.40;;
39890;SDS011;25564;53.312;9.790;2023-04-24T04:48:37;1.63;;;1.10;;
39890;SDS011;25564;53.312;9.790;2023-04-24T04:51:09;2.13;;;1.10;;
39890;SDS011;25564;53.312;9.790;2023-04-24T04:53:40;2.07;;;1.17;;
39890;SDS011;25564;53.312;9.790;2023-04-24T04:56:11;1.60;;;1.20;;
39890;SDS011;25564;53.312;9.790;2023-04-24T04:58:43;1.63;;;1.10;;
39890;SDS011;25564;53.312;9.790;2023-04-24T05:01:14;1.90;;;1.03;;
39890;SDS011;25564;53.312;9.790;2023-04-24T05:03:45;1.63;;;1.10;;
39890;SDS011;25564;53.312;9.790;2023-04-24T05:06:17;1.63;;;0.80;;
39890;SDS011;25564;53.312;9.790;2023-04-24T05:08:48;1.63;;;1.00;;
39890;SDS011;25564;53.312;9.790;2023-04-24T05:11:19;2.80;;;1.00;;
39890;SDS011;25564;53.312;9.790;2023-04-24T05:13:51;1.57;;;1.00;;
39890;SDS011;25564;53.312;9.790;2023-04-24T05:16:22;1.70;;;0.90;;
39890;SDS011;25564;53.312;9.790;2023-04-24T05:18:53;1.47;;;1.10;;
39890;SDS011;25564;53.312;9.790;2023-04-24T05:21:25;1.43;;;0.90;;
39890;SDS011;25564;53.312;9.790;2023-04-24T05:23:56;0.90;;;0.60;;
39890;SDS011;25564;53.312;9.790;2023-04-24T05:26:28;1.63;;;0.80;;
39890;SDS011;25564;53.312;9.790;2023-04-24T05:28:59;2.40;;;1.00;;
39890;SDS011;25564;53.312;9.790;2023-04-24T05:31:31;2.80;;;0.80;;
39890;SDS011;25564;53.312;9.790;2023-04-24T05:34:02;1.43;;;0.80;;
39890;SDS011;25564;53.312;9.790;2023-04-24T05:36:33;1.80;;;0.97;;
39890;SDS011;25564;53.312;9.790;2023-04-24T05:39:05;2.53;;;1.13;;
39890;SDS011;25564;53.312;9.790;2023-04-24T05:41:38;2.17;;;1.20;;
39890;SDS011;25564;53.312;9.790;2023-04-24T05:44:09;2.20;;;1.23;;
39890;SDS011;25564;53.312;9.790;2023-04-24T05:46:41;2.10;;;1.20;;
39890;SDS011;25564;53.312;9.790;2023-04-24T05:49:12;1.90;;;1.20;;
39890;SDS011;25564;53.312;9.790;2023-04-24T05:51:43;1.60;;;1.20;;
39890;SDS011;25564;53.312;9.790;2023-04-24T05:54:15;2.47;;;1.50;;
39890;SDS011;25564;53.312;9.790;2023-04-24T05:56:46;2.30;;;1.30;;
39890;SDS011;25564;53.312;9.790;2023-04-24T05:59:18;3.03;;;1.67;;
39890;SDS011;25564;53.312;9.790;2023-04-24T06:01:50;4.13;;;1.70;;
39890;SDS011;25564;53.312;9.790;2023-04-24T06:04:21;2.67;;;1.63;;
39890;SDS011;25564;53.312;9.790;2023-04-24T06:06:53;2.63;;;1.70;;
39890;SDS011;25564;53.312;9.790;2023-04-24T06:09:27;2.43;;;1.40;;
39890;SDS011;25564;53.312;9.790;2023-04-24T06:11:58;3.13;;;1.50;;
39890;SDS011;25564;53.312;9.790;2023-04-24T06:14:31;2.50;;;1.40;;
39890;SDS011;25564;53.312;9.790;2023-04-24T06:17:02;2.63;;;1.63;;
39890;SDS011;25564;53.312;9.790;2023-04-24T06:19:33;2.00;;;1.40;;
39890;SDS011;25564;53.312;9.790;2023-04-24T06:22:05;4.07;;;1.50;;
39890;SDS011;25564;53.312;9.790;2023-04-24T06:24:36;2.50;;;1.57;;
39890;SDS011;25564;53.312;9.790;2023-04-24T06:27:07;2.60;;;1.60;;
39890;SDS011;25564;53.312;9.790;2023-04-24T06:29:38;6.23;;;1.87;;
39890;SDS011;25564;53.312;9.790;2023-04-24T06:32:10;2.17;;;1.40;;
39890;SDS011;25564;53.312;9.790;2023-04-24T06:34:42;4.07;;;1.57;;
39890;SDS011;25564;53.312;9.790;2023-04-24T06:37:13;2.63;;;1.57;;
39890;SDS011;25564;53.312;9.790;2023-04-24T06:39:45;3.10;;;1.70;;
39890;SDS011;25564;53.312;9.790;2023-04-24T06:42:16;2.70;;;1.90;;
39890;SDS011;25564;53.312;9.790;2023-04-24T06:44:48;4.07;;;2.77;;
39890;SDS011;25564;53.312;9.790;2023-04-24T06:47:19;3.17;;;2.20;;
39890;SDS011;25564;53.312;9.790;2023-04-24T06:49:51;5.23;;;2.30;;
39890;SDS011;25564;53.312;9.790;2023-04-24T06:52:23;2.83;;;2.13;;
39890;SDS011;25564;53.312;9.790;2023-04-24T06:54:59;4.67;;;2.50;;
39890;SDS011;25564;53.312;9.790;2023-04-24T06:57:32;2.67;;;2.00;;
39890;SDS011;25564;53.312;9.790;2023-04-24T07:00:04;3.90;;;2.07;;
39890;SDS011;25564;53.312;9.790;2023-04-24T07:02:36;3.03;;;2.13;;
39890;SDS011;25564;53.312;9.790;2023-04-24T07:05:08;4.87;;;2.60;;
39890;SDS011;25564;53.312;9.790;2023-04-24T07:07:40;3.80;;;2.30;;
39890;SDS011;25564;53.312;9.790;2023-04-24T07:10:11;6.67;;;3.00;;
39890;SDS011;25564;53.312;9.790;2023-04-24T07:12:43;6.07;;;2.77;;
39890;SDS011;25564;53.312;9.790;2023-04-24T07:15:14;6.60;;;2.50;;
39890;SDS011;25564;53.312;9.790;2023-04-24T07:17:45;4.80;;;2.70;;
39890;SDS011;25564;53.312;9.790;2023-04-24T07:20:17;4.07;;;2.73;;
39890;SDS011;25564;53.312;9.790;2023-04-24T07:22:49;6.23;;;2.60;;
39890;SDS011;25564;53.312;9.790;2023-04-24T07:25:20;4.27;;;2.90;;
39890;SDS011;25564;53.312;9.790;2023-04-24T07:27:51;4.67;;;2.77;;
39890;SDS011;25564;53.312;9.790;2023-04-24T07:30:24;6.00;;;3.23;;
39890;SDS011;25564;53.312;9.790;2023-04-24T07:32:56;4.27;;;3.20;;
39890;SDS011;25564;53.312;9.790;2023-04-24T07:35:27;3.83;;;2.70;;
39890;SDS011;25564;53.312;9.790;2023-04-24T07:37:58;4.83;;;3.33;;
39890;SDS011;25564;53.312;9.790;2023-04-24T07:40:30;4.97;;;3.40;;
39890;SDS011;25564;53.312;9.790;2023-04-24T07:43:01;4.20;;;2.63;;
39890;SDS011;25564;53.312;9.790;2023-04-24T07:45:32;5.97;;;3.30;;
39890;SDS011;25564;53.312;9.790;2023-04-24T07:48:08;5.47;;;3.67;;
39890;SDS011;25564;53.312;9.790;2023-04-24T07:50:40;5.07;;;2.90;;
39890;SDS011;25564;53.312;9.790;2023-04-24T07:53:11;4.33;;;2.97;;
39890;SDS011;25564;53.312;9.790;2023-04-24T07:55:42;6.53;;;3.47;;
39890;SDS011;25564;53.312;9.790;2023-04-24T07:58:14;4.83;;;3.40;;
39890;SDS011;25564;53.312;9.790;2023-04-24T08:00:46;4.73;;;3.13;;
39890;SDS011;25564;53.312;9.790;2023-04-24T08:03:17;3.87;;;3.27;;
39890;SDS011;25564;53.312;9.790;2023-04-24T08:05:51;5.17;;;3.77;;
39890;SDS011;25564;53.312;9.790;2023-04-24T08:08:22;4.33;;;3.60;;
39890;SDS011;25564;53.312;9.790;2023-04-24T08:10:54;6.00;;;4.23;;
39890;SDS011;25564;53.312;9.790;2023-04-24T08:13:26;5.93;;;4.63;;
39890;SDS011;25564;53.312;9.790;2023-04-24T08:15:57;6.00;;;4.50;;
39890;SDS011;25564;53.312;9.790;2023-04-24T08:18:28;6.33;;;4.10;;
39890;SDS011;25564;53.312;9.790;2023-04-24T08:21:00;4.83;;;3.07;;
39890;SDS011;25564;53.312;9.790;2023-04-24T08:23:32;4.90;;;3.23;;
39890;SDS011;25564;53.312;9.790;2023-04-24T08:26:04;5.53;;;3.07;;
39890;SDS011;25564;53.312;9.790;2023-04-24T08:28:35;3.73;;;2.77;;
39890;SDS011;25564;53.312;9.790;2023-04-24T08:31:07;5.00;;;3.80;;
39890;SDS011;25564;53.312;9.790;2023-04-24T08:33:38;5.57;;;3.60;;
39890;SDS011;25564;53.312;9.790;2023-04-24T08:36:11;5.57;;;3.93;;
39890;SDS011;25564;53.312;9.790;2023-04-24T08:38:43;5.70;;;3.50;;
39890;SDS011;25564;53.312;9.790;2023-04-24T08:41:14;5.87;;;4.40;;
39890;SDS011;25564;53.312;9.790;2023-04-24T08:43:47;4.50;;;3.40;;
39890;SDS011;25564;53.312;9.790;2023-04-24T08:46:19;6.03;;;4.10;;
39890;SDS011;25564;53.312;9.790;2023-04-24T08:48:51;9.33;;;4.40;;
39890;SDS011;25564;53.312;9.790;2023-04-24T08:51:23;7.73;;;4.20;;
39890;SDS011;25564;53.312;9.790;2023-04-24T08:53:57;5.00;;;3.30;;
39890;SDS011;25564;53.312;9.790;2023-04-24T08:56:29;5.37;;;3.90;;
39890;SDS011;25564;53.312;9.790;2023-04-24T08:59:02;6.20;;;4.40;;
39890;SDS011;25564;53.312;9.790;2023-04-24T09:01:33;7.30;;;3.67;;
39890;SDS011;25564;53.312;9.790;2023-04-24T09:04:07;6.33;;;4.20;;
39890;SDS011;25564;53.312;9.790;2023-04-24T09:06:41;4.80;;;3.85;;
39890;SDS011;25564;53.312;9.790;2023-04-24T09:09:13;9.97;;;4.30;;
39890;SDS011;25564;53.312;9.790;2023-04-24T09:11:44;5.10;;;3.93;;
39890;SDS011;25564;53.312;9.790;2023-04-24T09:14:16;6.07;;;4.43;;
39890;SDS011;25564;53.312;9.790;2023-04-24T09:16:47;6.47;;;4.17;;
39890;SDS011;25564;53.312;9.790;2023-04-24T09:19:19;8.20;;;4.57;;
39890;SDS011;25564;53.312;9.790;2023-04-24T09:21:53;5.00;;;4.30;;
39890;SDS011;25564;53.312;9.790;2023-04-24T09:24:25;6.23;;;4.80;;
39890;SDS011;25564;53.312;9.790;2023-04-24T09:26:57;6.47;;;4.47;;
39890;SDS011;25564;53.312;9.790;2023-04-24T09:29:35;7.53;;;5.00;;
39890;SDS011;25564;53.312;9.790;2023-04-24T09:32:17;7.93;;;5.20;;
39890;SDS011;25564;53.312;9.790;2023-04-24T09:35:14;8.40;;;5.22;;
39890;SDS011;25564;53.312;9.790;2023-04-24T09:37:45;9.37;;;5.47;;
39890;SDS011;25564;53.312;9.790;2023-04-24T09:40:18;7.40;;;5.23;;
39890;SDS011;25564;53.312;9.790;2023-04-24T09:45:27;8.10;;;5.40;;
39890;SDS011;25564;53.312;9.790;2023-04-24T09:48:09;11.23;;;6.07;;
39890;SDS011;25564;53.312;9.790;2023-04-24T09:50:45;7.07;;;5.07;;
39890;SDS011;25564;53.312;9.790;2023-04-24T09:53:17;8.45;;;6.32;;
39890;SDS011;25564;53.312;9.790;2023-04-24T09:55:55;10.47;;;6.40;;
39890;SDS011;25564;53.312;9.790;2023-04-24T09:58:28;13.40;;;6.73;;
39890;SDS011;25564;53.312;9.790;2023-04-24T10:01:00;11.43;;;6.87;;
39890;SDS011;25564;53.312;9.790;2023-04-24T10:03:32;11.30;;;5.90;;
39890;SDS011;25564;53.312;9.790;2023-04-24T10:06:04;11.23;;;6.03;;
39890;SDS011;25564;53.312;9.790;2023-04-24T10:08:40;10.50;;;5.50;;
39890;SDS011;25564;53.312;9.790;2023-04-24T10:11:11;11.57;;;6.60;;
39890;SDS011;25564;53.312;9.790;2023-04-24T10:13:44;10.33;;;5.80;;
39890;SDS011;25564;53.312;9.790;2023-04-24T10:16:15;8.70;;;5.60;;
39890;SDS011;25564;53.312;9.790;2023-04-24T10:18:48;11.57;;;6.20;;
39890;SDS011;25564;53.312;9.790;2023-04-24T10:21:19;10.80;;;6.50;;
39890;SDS011;25564;53.312;9.790;2023-04-24T10:23:51;10.23;;;5.80;;
39890;SDS011;25564;53.312;9.790;2023-04-24T10:26:22;12.27;;;7.37;;
39890;SDS011;25564;53.312;9.790;2023-04-24T10:28:54;9.47;;;5.97;;
39890;SDS011;25564;53.312;9.790;2023-04-24T10:31:30;9.87;;;6.03;;
39890;SDS011;25564;53.312;9.790;2023-04-24T10:34:04;8.53;;;5.57;;
39890;SDS011;25564;53.312;9.790;2023-04-24T10:36:38;10.37;;;6.77;;
39890;SDS011;25564;53.312;9.790;2023-04-24T10:39:12;14.68;;;5.90;;
39890;SDS011;25564;53.312;9.790;2023-04-24T10:41:46;10.73;;;6.97;;
39890;SDS011;25564;53.312;9.790;2023-04-24T10:44:20;10.73;;;6.73;;
39890;SDS011;25564;53.312;9.790;2023-04-24T10:46:53;10.97;;;6.07;;
39890;SDS011;25564;53.312;9.790;2023-04-24T10:49:29;10.93;;;6.13;;
39890;SDS011;25564;53.312;9.790;2023-04-24T10:52:02;7.78;;;5.38;;
39890;SDS011;25564;53.312;9.790;2023-04-24T10:54:45;13.10;;;6.22;;
39890;SDS011;25564;53.312;9.790;2023-04-24T11:00:09;10.80;;;5.63;;
39890;SDS011;25564;53.312;9.790;2023-04-24T11:02:42;8.87;;;4.87;;
39890;SDS011;25564;53.312;9.790;2023-04-24T11:05:20;7.13;;;5.07;;
39890;SDS011;25564;53.312;9.790;2023-04-24T11:10:54;7.77;;;5.27;;
39890;SDS011;25564;53.312;9.790;2023-04-24T11:19:08;6.63;;;4.50;;
39890;SDS011;25564;53.312;9.790;2023-04-24T11:22:00;8.10;;;4.73;;
39890;SDS011;25564;53.312;9.790;2023-04-24T11:24:38;8.23;;;4.87;;
39890;SDS011;25564;53.312;9.790;2023-04-24T11:27:15;9.77;;;4.57;;
39890;SDS011;25564;53.312;9.790;2023-04-24T11:32:29;7.73;;;5.00;;
39890;SDS011;25564;53.312;9.790;2023-04-24T11:35:04;8.03;;;4.37;;
39890;SDS011;25564;53.312;9.790;2023-04-24T11:37:40;7.40;;;4.72;;
39890;SDS011;25564;53.312;9.790;2023-04-24T11:40:13;8.73;;;4.67;;
39890;SDS011;25564;53.312;9.790;2023-04-24T11:42:50;6.27;;;4.40;;
39890;SDS011;25564;53.312;9.790;2023-04-24T11:45:27;8.60;;;4.50;;
39890;SDS011;25564;53.312;9.790;2023-04-24T11:48:02;6.30;;;4.53;;
39890;SDS011;25564;53.312;9.790;2023-04-24T11:50:34;5.67;;;4.37;;
39890;SDS011;25564;53.312;9.790;2023-04-24T11:53:06;6.50;;;4.10;;
39890;SDS011;25564;53.312;9.790;2023-04-24T11:55:37;6.47;;;4.37;;
39890;SDS011;25564;53.312;9.790;2023-04-24T11:58:08;7.27;;;3.90;;
39890;SDS011;25564;53.312;9.790;2023-04-24T12:00:40;7.07;;;4.20;;
39890;SDS011;25564;53.312;9.790;2023-04-24T12:03:11;6.20;;;4.40;;
39890;SDS011;25564;53.312;9.790;2023-04-24T12:05:43;9.83;;;4.10;;
39890;SDS011;25564;53.312;9.790;2023-04-24T12:08:28;6.00;;;4.50;;
39890;SDS011;25564;53.312;9.790;2023-04-24T12:11:00;4.87;;;3.73;;
39890;SDS011;25564;53.312;9.790;2023-04-24T12:13:36;5.97;;;3.83;;
39890;SDS011;25564;53.312;9.790;2023-04-24T12:16:07;6.13;;;3.80;;
39890;SDS011;25564;53.312;9.790;2023-04-24T12:18:42;5.73;;;3.80;;
39890;SDS011;25564;53.312;9.790;2023-04-24T12:23:56;5.33;;;3.40;;
39890;SDS011;25564;53.312;9.790;2023-04-24T12:26:27;4.33;;;3.23;;
39890;SDS011;25564;53.312;9.790;2023-04-24T12:29:01;4.87;;;3.20;;
39890;SDS011;25564;53.312;9.790;2023-04-24T12:31:32;5.03;;;3.13;;
39890;SDS011;25564;53.312;9.790;2023-04-24T12:34:04;4.23;;;3.53;;
39890;SDS011;25564;53.312;9.790;2023-04-24T12:36:47;5.27;;;3.37;;
39890;SDS011;25564;53.312;9.790;2023-04-24T12:39:19;4.80;;;3.57;;
39890;SDS011;25564;53.312;9.790;2023-04-24T12:41:57;5.93;;;3.80;;
39890;SDS011;25564;53.312;9.790;2023-04-24T12:44:30;5.67;;;3.67;;
39890;SDS011;25564;53.312;9.790;2023-04-24T12:47:05;5.43;;;2.67;;
39890;SDS011;25564;53.312;9.790;2023-04-24T12:49:37;7.83;;;3.10;;
39890;SDS011;25564;53.312;9.790;2023-04-24T12:52:08;4.50;;;2.97;;
39890;SDS011;25564;53.312;9.790;2023-04-24T12:54:39;7.37;;;3.00;;
39890;SDS011;25564;53.312;9.790;2023-04-24T12:57:11;3.83;;;2.53;;
39890;SDS011;25564;53.312;9.790;2023-04-24T12:59:42;3.90;;;2.83;;
39890;SDS011;25564;53.312;9.790;2023-04-24T13:02:14;3.07;;;2.43;;
39890;SDS011;25564;53.312;9.790;2023-04-24T13:04:49;4.77;;;2.63;;
39890;SDS011;25564;53.312;9.790;2023-04-24T13:07:20;3.63;;;3.00;;
39890;SDS011;25564;53.312;9.790;2023-04-24T13:09:52;4.77;;;2.90;;
39890;SDS011;25564;53.312;9.790;2023-04-24T13:12:25;5.03;;;3.00;;
39890;SDS011;25564;53.312;9.790;2023-04-24T13:14:57;4.20;;;3.07;;
39890;SDS011;25564;53.312;9.790;2023-04-24T13:17:29;4.93;;;3.00;;
39890;SDS011;25564;53.312;9.790;2023-04-24T13:20:01;3.97;;;2.97;;
39890;SDS011;25564;53.312;9.790;2023-04-24T13:22:32;3.90;;;2.90;;
39890;SDS011;25564;53.312;9.790;2023-04-24T13:25:03;4.17;;;2.93;;
39890;SDS011;25564;53.312;9.790;2023-04-24T13:27:38;4.77;;;3.23;;
39890;SDS011;25564;53.312;9.790;2023-04-24T13:30:09;4.73;;;2.83;;
39890;SDS011;25564;53.312;9.790;2023-04-24T13:32:41;4.23;;;3.20;;
39890;SDS011;25564;53.312;9.790;2023-04-24T13:35:13;5.57;;;3.40;;
39890;SDS011;25564;53.312;9.790;2023-04-24T13:37:44;4.13;;;3.20;;
39890;SDS011;25564;53.312;9.790;2023-04-24T13:40:15;4.47;;;2.57;;
39890;SDS011;25564;53.312;9.790;2023-04-24T13:42:47;4.80;;;2.60;;
39890;SDS011;25564;53.312;9.790;2023-04-24T13:45:18;3.40;;;2.70;;
39890;SDS011;25564;53.312;9.790;2023-04-24T13:47:55;5.63;;;3.30;;
39890;SDS011;25564;53.312;9.790;2023-04-24T13:50:28;4.30;;;2.40;;
39890;SDS011;25564;53.312;9.790;2023-04-24T13:52:59;3.27;;;2.30;;
39890;SDS011;25564;53.312;9.790;2023-04-24T13:55:33;4.93;;;2.63;;
39890;SDS011;25564;53.312;9.790;2023-04-24T13:58:06;3.53;;;2.57;;
39890;SDS011;25564;53.312;9.790;2023-04-24T14:00:38;2.57;;;1.80;;
39890;SDS011;25564;53.312;9.790;2023-04-24T14:03:09;3.87;;;2.23;;
39890;SDS011;25564;53.312;9.790;2023-04-24T14:05:42;4.47;;;2.50;;
39890;SDS011;25564;53.312;9.790;2023-04-24T14:08:13;2.80;;;1.97;;
39890;SDS011;25564;53.312;9.790;2023-04-24T14:10:44;2.70;;;2.00;;
39890;SDS011;25564;53.312;9.790;2023-04-24T14:13:16;2.23;;;1.67;;
39890;SDS011;25564;53.312;9.790;2023-04-24T14:15:47;2.60;;;1.63;;
39890;SDS011;25564;53.312;9.790;2023-04-24T14:18:19;4.40;;;2.00;;
39890;SDS011;25564;53.312;9.790;2023-04-24T14:20:51;2.43;;;1.73;;
39890;SDS011;25564;53.312;9.790;2023-04-24T14:23:22;3.30;;;1.60;;
39890;SDS011;25564;53.312;9.790;2023-04-24T14:25:53;1.73;;;1.40;;
39890;SDS011;25564;53.312;9.790;2023-04-24T14:28:25;2.17;;;1.63;;
39890;SDS011;25564;53.312;9.790;2023-04-24T14:30:57;2.57;;;1.77;;
39890;SDS011;25564;53.312;9.790;2023-04-24T14:33:28;3.27;;;2.00;;
39890;SDS011;25564;53.312;9.790;2023-04-24T14:36:00;2.30;;;1.60;;
39890;SDS011;25564;53.312;9.790;2023-04-24T14:38:33;3.87;;;1.50;;
39890;SDS011;25564;53.312;9.790;2023-04-24T14:41:05;1.87;;;1.30;;
39890;SDS011;25564;53.312;9.790;2023-04-24T14:43:44;2.67;;;1.73;;
39890;SDS011;25564;53.312;9.790;2023-04-24T14:46:16;4.57;;;1.90;;
39890;SDS011;25564;53.312;9.790;2023-04-24T14:48:47;2.40;;;1.63;;
39890;SDS011;25564;53.312;9.790;2023-04-24T14:51:18;2.20;;;1.50;;
39890;SDS011;25564;53.312;9.790;2023-04-24T14:53:50;2.83;;;1.90;;
39890;SDS011;25564;53.312;9.790;2023-04-24T14:56:22;3.60;;;2.20;;
39890;SDS011;25564;53.312;9.790;2023-04-24T14:58:54;3.70;;;2.40;;
39890;SDS011;25564;53.312;9.790;2023-04-24T15:01:26;3.27;;;2.30;;
39890;SDS011;25564;53.312;9.790;2023-04-24T15:03:57;2.73;;;1.97;;
39890;SDS011;25564;53.312;9.790;2023-04-24T15:06:29;3.43;;;2.03;;
39890;SDS011;25564;53.312;9.790;2023-04-24T15:09:01;4.63;;;2.50;;
39890;SDS011;25564;53.312;9.790;2023-04-24T15:11:33;2.97;;;1.77;;
39890;SDS011;25564;53.312;9.790;2023-04-24T15:14:04;3.93;;;1.93;;
39890;SDS011;25564;53.312;9.790;2023-04-24T15:16:36;2.60;;;1.60;;
39890;SDS011;25564;53.312;9.790;2023-04-24T15:19:07;3.57;;;2.10;;
39890;SDS011;25564;53.312;9.790;2023-04-24T15:21:39;3.50;;;2.03;;
39890;SDS011;25564;53.312;9.790;2023-04-24T15:24:12;5.20;;;2.80;;
39890;SDS011;25564;53.312;9.790;2023-04-24T15:26:43;7.33;;;3.10;;
39890;SDS011;25564;53.312;9.790;2023-04-24T15:29:15;7.67;;;3.70;;
39890;SDS011;25564;53.312;9.790;2023-04-24T15:31:46;6.07;;;3.73;;
39890;SDS011;25564;53.312;9.790;2023-04-24T15:34:18;9.53;;;4.00;;
39890;SDS011;25564;53.312;9.790;2023-04-24T15:36:49;5.87;;;3.53;;